createdAt,value
2018-05-12T00:01:05.804Z,16.27
2018-05-12T00:03:33.427Z,16.31
2018-05-12T00:06:01.027Z,16.15
2018-05-12T00:08:28.671Z,16.11
2018-05-12T00:10:56.277Z,15.93
2018-05-12T00:13:23.877Z,15.89
2018-05-12T00:15:51.512Z,15.87
2018-05-12T00:18:19.106Z,15.85
2018-05-12T00:20:46.728Z,15.83
2018-05-12T00:23:14.326Z,15.77
2018-05-12T00:25:42.166Z,15.78
2018-05-12T00:28:09.758Z,15.76
2018-05-12T00:30:37.352Z,15.71
2018-05-12T00:33:04.986Z,15.69
2018-05-12T00:35:32.590Z,15.64
2018-05-12T00:38:00.215Z,15.59
2018-05-12T00:40:27.832Z,15.63
2018-05-12T00:42:55.561Z,15.59
2018-05-12T00:45:23.108Z,15.48
2018-05-12T00:47:50.724Z,15.46
2018-05-12T00:50:18.341Z,15.37
2018-05-12T00:52:45.948Z,15.38
2018-05-12T00:55:13.589Z,15.35
2018-05-12T00:57:41.194Z,15.38
2018-05-12T01:00:08.858Z,15.37
2018-05-12T01:02:36.463Z,15.31
2018-05-12T01:05:04.071Z,15.33
2018-05-12T01:07:31.700Z,15.32
2018-05-12T01:09:59.302Z,15.30
2018-05-12T01:12:26.925Z,15.26
2018-05-12T01:14:54.522Z,15.19
2018-05-12T01:17:22.363Z,15.13
2018-05-12T01:19:49.965Z,15.10
2018-05-12T01:22:17.565Z,14.98
2018-05-12T01:24:45.190Z,14.91
2018-05-12T01:27:12.789Z,14.83
2018-05-12T01:29:40.418Z,14.80
2018-05-12T01:32:08.022Z,14.75
2018-05-12T01:34:35.798Z,14.70
2018-05-12T01:37:03.391Z,14.55
2018-05-12T01:39:30.994Z,14.44
2018-05-12T01:41:58.627Z,14.37
2018-05-12T01:44:26.219Z,14.32
2018-05-12T01:46:53.843Z,14.27
2018-05-12T01:49:21.444Z,14.25
2018-05-12T01:51:49.174Z,14.24
2018-05-12T01:54:16.775Z,14.27
2018-05-12T01:56:44.379Z,14.23
2018-05-12T01:59:11.998Z,14.18
2018-05-12T02:01:39.593Z,14.17
2018-05-12T02:04:07.213Z,14.16
2018-05-12T02:06:34.814Z,14.18
2018-05-12T02:09:02.586Z,14.16
2018-05-12T02:11:30.183Z,14.13
2018-05-12T02:13:57.786Z,14.16
2018-05-12T02:16:25.419Z,14.17
2018-05-12T02:18:53.014Z,14.16
2018-05-12T02:21:20.641Z,14.12
2018-05-12T02:23:48.246Z,14.15
2018-05-12T02:26:15.913Z,14.13
2018-05-12T02:28:43.536Z,14.14
2018-05-12T02:31:11.136Z,14.10
2018-05-12T02:33:38.761Z,14.05
2018-05-12T02:36:06.362Z,14.01
2018-05-12T02:38:34.314Z,13.90
2018-05-12T02:41:01.913Z,13.91
2018-05-12T02:43:29.506Z,13.90
2018-05-12T02:45:57.122Z,13.91
2018-05-12T02:48:24.719Z,13.91
2018-05-12T02:50:52.732Z,13.89
2018-05-12T02:53:20.331Z,13.83
2018-05-12T02:55:47.947Z,13.83
2018-05-12T02:58:15.570Z,13.83
2018-05-12T03:00:43.196Z,13.82
2018-05-12T03:03:10.810Z,13.75
2018-05-12T03:05:38.397Z,13.72
2018-05-12T03:08:06.262Z,13.69
2018-05-12T03:10:33.869Z,13.72
2018-05-12T03:13:01.476Z,13.71
2018-05-12T03:15:29.096Z,13.73
2018-05-12T03:17:56.715Z,13.62
2018-05-12T03:20:24.339Z,13.61
2018-05-12T03:22:51.937Z,13.60
2018-05-12T03:25:20.002Z,13.61
2018-05-12T03:27:47.596Z,13.60
2018-05-12T03:30:15.195Z,13.57
2018-05-12T03:32:42.818Z,13.58
2018-05-12T03:35:10.424Z,13.60
2018-05-12T03:37:38.058Z,13.59
2018-05-12T03:40:05.671Z,13.54
2018-05-12T03:42:33.536Z,13.48
2018-05-12T03:45:01.145Z,13.48
2018-05-12T03:47:28.751Z,13.44
2018-05-12T03:49:56.390Z,13.43
2018-05-12T03:52:23.986Z,13.41
2018-05-12T03:54:51.618Z,13.39
2018-05-12T03:57:19.285Z,13.38
2018-05-12T03:59:47.067Z,13.34
2018-05-12T04:02:14.739Z,13.32
2018-05-12T04:04:54.269Z,13.31
2018-05-12T04:07:33.537Z,13.34
2018-05-12T04:10:14.517Z,13.32
2018-05-12T04:12:42.124Z,13.36
2018-05-12T04:15:09.718Z,13.31
2018-05-12T04:17:37.360Z,13.34
2018-05-12T04:20:04.966Z,13.40
2018-05-12T04:22:32.583Z,13.40
2018-05-12T04:25:00.185Z,13.44
2018-05-12T04:27:27.922Z,13.40
2018-05-12T04:29:55.527Z,13.42
2018-05-12T04:32:23.130Z,13.42
2018-05-12T04:34:50.752Z,13.42
2018-05-12T04:37:18.345Z,13.36
2018-05-12T04:39:45.970Z,13.40
2018-05-12T04:42:13.571Z,13.45
2018-05-12T04:44:41.216Z,13.46
2018-05-12T04:47:08.812Z,13.44
2018-05-12T04:49:36.410Z,13.46
2018-05-12T04:52:04.054Z,13.53
2018-05-12T04:54:31.654Z,13.55
2018-05-12T04:56:59.269Z,13.57
2018-05-12T04:59:26.864Z,13.61
2018-05-12T05:01:54.684Z,13.61
2018-05-12T05:04:22.284Z,13.63
2018-05-12T05:06:49.882Z,13.70
2018-05-12T05:09:17.503Z,13.72
2018-05-12T05:11:45.121Z,13.80
2018-05-12T05:14:12.747Z,13.87
2018-05-12T05:16:40.406Z,13.93
2018-05-12T05:19:08.315Z,13.90
2018-05-12T05:21:35.915Z,13.89
2018-05-12T05:24:03.515Z,13.93
2018-05-12T05:26:31.236Z,13.98
2018-05-12T05:28:58.842Z,14.03
2018-05-12T05:31:26.463Z,14.07
2018-05-12T05:33:54.058Z,14.07
2018-05-12T05:36:21.962Z,14.12
2018-05-12T05:38:49.566Z,14.23
2018-05-12T05:41:17.168Z,14.23
2018-05-12T05:43:44.785Z,14.35
2018-05-12T05:46:12.384Z,14.49
2018-05-12T05:48:40.008Z,14.50
2018-05-12T05:51:07.627Z,14.57
2018-05-12T05:53:35.506Z,14.69
2018-05-12T05:56:03.101Z,14.76
2018-05-12T05:58:30.738Z,14.87
2018-05-12T06:00:58.349Z,15.00
2018-05-12T06:03:25.942Z,15.03
2018-05-12T06:05:53.561Z,15.10
2018-05-12T06:08:21.159Z,15.24
2018-05-12T06:10:49.210Z,15.19
2018-05-12T06:13:16.812Z,15.23
2018-05-12T06:15:44.425Z,15.34
2018-05-12T06:18:12.114Z,15.40
2018-05-12T06:20:39.684Z,15.64
2018-05-12T06:23:07.306Z,15.55
2018-05-12T06:25:35.000Z,15.69
2018-05-12T06:28:02.793Z,15.71
2018-05-12T06:30:30.390Z,15.87
2018-05-12T06:32:58.012Z,15.96
2018-05-12T06:35:25.765Z,16.01
2018-05-12T06:37:53.370Z,16.11
2018-05-12T06:40:20.987Z,16.16
2018-05-12T06:42:48.598Z,16.26
2018-05-12T06:45:16.519Z,16.36
2018-05-12T06:47:44.131Z,16.37
2018-05-12T06:50:11.726Z,16.50
2018-05-12T06:52:39.387Z,16.84
2018-05-12T06:55:06.982Z,16.68
2018-05-12T06:57:35.033Z,16.80
2018-05-12T07:00:02.637Z,16.98
2018-05-12T07:02:30.233Z,17.08
2018-05-12T07:04:57.847Z,17.25
2018-05-12T07:07:25.539Z,17.08
2018-05-12T07:09:53.350Z,17.17
2018-05-12T07:12:21.030Z,17.32
2018-05-12T07:14:48.686Z,17.34
2018-05-12T07:17:16.314Z,17.47
2018-05-12T07:19:43.911Z,17.46
2018-05-12T07:22:11.530Z,17.57
2018-05-12T07:24:39.130Z,17.58
2018-05-12T07:27:06.767Z,17.65
2018-05-12T07:29:34.429Z,17.80
2018-05-12T07:32:02.006Z,17.69
2018-05-12T07:34:29.635Z,17.84
2018-05-12T07:36:57.248Z,17.95
2018-05-12T07:39:24.899Z,18.08
2018-05-12T07:41:52.503Z,18.22
2018-05-12T07:44:20.340Z,18.35
2018-05-12T07:46:47.938Z,18.50
2018-05-12T07:49:15.534Z,18.60
2018-05-12T07:51:43.159Z,18.59
2018-05-12T07:54:10.761Z,18.64
2018-05-12T07:56:38.497Z,18.77
2018-05-12T07:59:06.106Z,18.90
2018-05-12T08:01:33.850Z,18.86
2018-05-12T08:06:28.365Z,19.04
2018-05-12T08:08:56.006Z,18.97
2018-05-12T08:11:23.612Z,19.14
2018-05-12T08:13:51.232Z,19.33
2018-05-12T08:16:18.975Z,19.41
2018-05-12T08:18:46.984Z,19.55
2018-05-12T08:21:14.582Z,19.63
2018-05-12T08:23:42.208Z,19.71
2018-05-12T08:26:09.887Z,19.84
2018-05-12T08:28:37.450Z,20.07
2018-05-12T08:31:05.075Z,20.01
2018-05-12T08:33:32.676Z,20.03
2018-05-12T08:36:00.336Z,20.29
2018-05-12T08:38:27.956Z,20.25
2018-05-12T08:40:55.556Z,20.32
2018-05-12T08:43:23.177Z,20.52
2018-05-12T08:45:50.786Z,20.36
2018-05-12T08:48:18.474Z,20.50
2018-05-12T08:50:46.027Z,20.63
2018-05-12T08:53:13.711Z,20.74
2018-05-12T08:55:41.405Z,20.85
2018-05-12T08:58:09.011Z,20.97
2018-05-12T09:00:36.634Z,21.10
2018-05-12T09:03:04.235Z,20.99
2018-05-12T09:05:32.059Z,21.20
2018-05-12T09:07:59.672Z,21.38
2018-05-12T09:10:27.279Z,21.34
2018-05-12T09:12:54.899Z,21.31
2018-05-12T09:15:22.496Z,21.50
2018-05-12T09:17:50.275Z,21.61
2018-05-12T09:20:17.879Z,21.65
2018-05-12T09:22:45.478Z,21.60
2018-05-12T09:25:13.115Z,21.61
2018-05-12T09:27:40.731Z,21.87
2018-05-12T09:30:08.350Z,22.06
2018-05-12T09:32:36.006Z,22.16
2018-05-12T09:35:03.651Z,22.32
2018-05-12T09:37:31.251Z,22.19
2018-05-12T09:39:58.847Z,22.19
2018-05-12T09:42:26.512Z,22.29
2018-05-12T09:44:54.211Z,22.42
2018-05-12T09:47:21.823Z,22.24
2018-05-12T09:49:49.419Z,21.93
2018-05-12T09:52:17.253Z,22.13
2018-05-12T09:54:44.876Z,22.41
2018-05-12T09:57:12.473Z,22.28
2018-05-12T09:59:40.105Z,22.39
2018-05-12T10:02:07.708Z,22.64
2018-05-12T10:04:35.330Z,22.79
2018-05-12T10:07:02.931Z,22.67
2018-05-12T10:09:30.684Z,22.96
2018-05-12T10:11:58.210Z,23.05
2018-05-12T10:14:25.884Z,22.96
2018-05-12T10:16:53.462Z,22.89
2018-05-12T10:19:21.109Z,23.15
2018-05-12T10:21:48.726Z,23.18
2018-05-12T10:24:16.323Z,23.41
2018-05-12T10:26:43.971Z,23.41
2018-05-12T10:29:11.572Z,23.49
2018-05-12T10:31:39.166Z,23.58
2018-05-12T10:34:06.789Z,23.63
2018-05-12T10:36:34.398Z,23.60
2018-05-12T10:39:02.020Z,23.55
2018-05-12T10:41:29.635Z,23.37
2018-05-12T10:43:57.273Z,23.12
2018-05-12T10:46:24.868Z,23.31
2018-05-12T10:48:52.463Z,23.54
2018-05-12T10:51:20.091Z,23.77
2018-05-12T10:53:47.707Z,23.77
2018-05-12T10:56:15.332Z,23.87
2018-05-12T10:58:42.951Z,23.88
2018-05-12T11:01:10.607Z,23.82
2018-05-12T11:03:38.194Z,23.96
2018-05-12T11:06:05.785Z,23.97
2018-05-12T11:08:33.406Z,24.19
2018-05-12T11:11:01.020Z,24.26
2018-05-12T11:13:28.649Z,24.33
2018-05-12T11:15:56.296Z,24.39
2018-05-12T11:18:23.904Z,24.35
2018-05-12T11:20:51.512Z,24.33
2018-05-12T11:23:19.125Z,23.95
2018-05-12T11:25:46.742Z,24.20
2018-05-12T11:28:14.329Z,24.25
2018-05-12T11:30:41.948Z,24.29
2018-05-12T11:33:09.552Z,24.51
2018-05-12T11:35:37.437Z,24.27
2018-05-12T11:38:05.026Z,24.22
2018-05-12T11:40:32.624Z,24.59
2018-05-12T11:43:00.246Z,24.57
2018-05-12T11:45:27.866Z,24.77
2018-05-12T11:47:55.495Z,25.20
2018-05-12T11:50:23.091Z,25.50
2018-05-12T11:52:50.747Z,25.74
2018-05-12T11:55:18.342Z,25.95
2018-05-12T11:57:45.927Z,26.25
2018-05-12T12:00:13.539Z,25.98
2018-05-12T12:02:41.138Z,26.35
2018-05-12T12:05:08.759Z,26.09
2018-05-12T12:07:36.352Z,25.91
2018-05-12T12:10:04.141Z,26.05
2018-05-12T12:12:31.732Z,26.15
2018-05-12T12:14:59.432Z,26.43
2018-05-12T12:17:27.055Z,26.52
2018-05-12T12:19:54.658Z,26.82
2018-05-12T12:22:22.276Z,26.81
2018-05-12T12:24:49.876Z,26.82
2018-05-12T12:27:17.515Z,26.86
2018-05-12T12:29:45.110Z,26.65
2018-05-12T12:32:12.756Z,26.86
2018-05-12T12:34:40.347Z,26.96
2018-05-12T12:37:07.947Z,27.00
2018-05-12T12:39:35.571Z,27.10
2018-05-12T12:42:03.162Z,27.16
2018-05-12T12:44:30.787Z,27.48
2018-05-12T12:46:58.407Z,27.66
2018-05-12T12:49:26.006Z,27.07
2018-05-12T12:51:53.637Z,26.83
2018-05-12T12:54:21.234Z,27.36
2018-05-12T12:56:48.873Z,28.42
2018-05-12T12:59:16.484Z,28.94
2018-05-12T13:01:44.338Z,29.58
2018-05-12T13:04:12.898Z,30.12
2018-05-12T13:06:40.499Z,30.88
2018-05-12T13:09:08.109Z,30.71
2018-05-12T13:11:35.695Z,30.14
2018-05-12T13:14:03.315Z,29.99
2018-05-12T13:16:30.907Z,29.36
2018-05-12T13:18:58.558Z,29.03
2018-05-12T13:21:26.171Z,28.45
2018-05-12T13:23:53.755Z,27.92
2018-05-12T13:26:21.373Z,27.55
2018-05-12T13:28:48.981Z,28.40
2018-05-12T13:31:16.599Z,29.72
2018-05-12T13:33:44.223Z,30.18
2018-05-12T13:36:11.967Z,30.06
2018-05-12T13:38:39.572Z,29.30
2018-05-12T13:41:07.162Z,31.04
2018-05-12T13:43:34.783Z,30.61
2018-05-12T13:46:02.378Z,29.89
2018-05-12T13:48:30.008Z,30.17
2018-05-12T13:50:57.610Z,31.44
2018-05-12T13:53:25.442Z,33.10
2018-05-12T13:55:53.171Z,34.08
2018-05-12T13:58:20.694Z,34.31
2018-05-12T14:00:48.318Z,34.15
2018-05-12T14:03:15.899Z,33.23
2018-05-12T14:05:43.506Z,32.30
2018-05-12T14:08:11.100Z,31.40
2018-05-12T14:10:39.190Z,30.13
2018-05-12T14:13:06.824Z,29.42
2018-05-12T14:15:34.553Z,28.78
2018-05-12T14:18:02.174Z,28.39
2018-05-12T16:19:34.255Z,24.73
2018-05-12T16:22:01.868Z,24.89
2018-05-12T16:24:29.514Z,24.99
2018-05-12T16:26:57.095Z,24.99
2018-05-12T16:29:24.851Z,24.92
2018-05-12T16:31:52.634Z,24.82
2018-05-12T16:34:20.228Z,24.75
2018-05-12T16:36:47.982Z,24.63
2018-05-12T16:39:15.633Z,24.53
2018-05-12T16:41:43.278Z,24.44
2018-05-12T16:44:10.902Z,24.34
2018-05-12T16:46:39.116Z,24.14
2018-05-12T16:49:06.734Z,24.08
2018-05-12T16:51:34.335Z,23.91
2018-05-12T16:54:02.092Z,23.89
2018-05-12T16:56:29.713Z,23.76
2018-05-12T16:58:57.359Z,23.74
2018-05-12T17:01:24.964Z,23.77
2018-05-12T17:03:52.755Z,23.75
2018-05-12T17:06:20.396Z,23.67
2018-05-12T17:08:48.109Z,23.64
2018-05-12T17:11:15.837Z,23.59
2018-05-12T17:13:43.646Z,23.52
2018-05-12T17:16:11.310Z,23.48
2018-05-12T17:18:38.969Z,23.50
2018-05-12T17:21:06.830Z,23.50
2018-05-12T17:23:34.636Z,23.56
2018-05-12T17:26:02.255Z,23.80
2018-05-12T17:28:30.022Z,23.89
2018-05-12T17:30:57.665Z,23.84
2018-05-12T17:33:25.372Z,23.83
2018-05-12T17:35:52.997Z,23.79
2018-05-12T17:38:20.642Z,23.76
2018-05-12T17:40:48.250Z,23.83
2018-05-12T17:43:15.867Z,23.89
2018-05-12T17:45:43.509Z,23.94
2018-05-12T17:48:11.130Z,23.97
2018-05-12T17:50:38.828Z,24.08
2018-05-12T17:53:06.449Z,24.30
2018-05-12T17:55:34.533Z,24.34
2018-05-12T17:58:02.101Z,24.23
2018-05-12T18:00:30.176Z,24.12
2018-05-12T18:02:57.801Z,24.01
2018-05-12T18:05:25.745Z,23.92
2018-05-12T18:07:53.376Z,23.70
2018-05-12T18:10:21.059Z,23.55
2018-05-12T18:12:48.839Z,23.45
2018-05-12T18:15:16.466Z,23.31
2018-05-12T18:17:44.119Z,23.20
2018-05-12T18:20:11.745Z,23.11
2018-05-12T18:22:39.341Z,23.01
2018-05-12T18:25:07.142Z,22.86
2018-05-12T18:27:34.732Z,22.79
2018-05-12T18:30:02.693Z,22.63
2018-05-12T18:32:30.629Z,22.54
2018-05-12T18:34:58.247Z,22.44
2018-05-12T18:37:25.879Z,22.30
2018-05-12T18:39:53.484Z,22.17
2018-05-12T18:42:21.502Z,22.09
2018-05-12T18:44:49.123Z,21.93
2018-05-12T18:47:16.739Z,21.91
2018-05-12T18:49:44.400Z,21.82
2018-05-12T18:52:11.990Z,21.79
2018-05-12T18:54:40.028Z,21.80
2018-05-12T18:57:07.631Z,21.77
2018-05-12T18:59:35.273Z,21.70
2018-05-12T19:02:02.902Z,21.64
2018-05-12T19:04:30.640Z,21.57
2018-05-12T19:06:58.722Z,21.48
2018-05-12T19:09:26.393Z,21.45
2018-05-12T19:11:54.010Z,21.43
2018-05-12T19:14:21.673Z,21.38
2018-05-12T19:16:49.293Z,21.29
2018-05-12T19:19:16.927Z,21.19
2018-05-12T19:21:44.529Z,21.11
2018-05-12T19:24:12.191Z,21.15
2018-05-12T19:26:39.807Z,21.07
2018-05-12T19:29:07.416Z,20.99
2018-05-12T19:31:35.060Z,20.94
2018-05-12T19:34:02.682Z,20.86
2018-05-12T19:36:30.338Z,20.85
2018-05-12T19:38:57.951Z,20.85
2018-05-12T19:41:25.607Z,20.76
2018-05-12T19:43:53.242Z,20.75
2018-05-12T19:46:20.851Z,20.70
2018-05-12T19:48:48.498Z,20.66
2018-05-12T19:51:16.106Z,20.60
2018-05-12T19:53:43.753Z,20.64
2018-05-12T19:56:11.353Z,20.63
2018-05-12T19:58:39.230Z,20.58
2018-05-12T20:01:06.858Z,20.58
2018-05-12T20:03:34.472Z,20.53
2018-05-12T20:06:02.090Z,20.54
2018-05-12T20:08:29.707Z,20.53
2018-05-12T20:10:58.037Z,20.48
2018-05-12T20:13:25.736Z,20.42
2018-05-12T20:15:53.426Z,20.31
2018-05-12T20:18:21.252Z,20.26
2018-05-12T20:20:48.852Z,20.25
2018-05-12T20:23:16.493Z,20.18
2018-05-12T20:25:44.089Z,20.12
2018-05-12T20:28:11.834Z,20.12
2018-05-12T20:30:39.453Z,20.12
2018-05-12T20:33:07.671Z,20.08
2018-05-12T20:35:35.301Z,20.04
2018-05-12T20:38:02.923Z,20.03
2018-05-12T20:40:30.729Z,19.99
2018-05-12T20:42:58.355Z,19.95
2018-05-12T20:45:25.994Z,19.94
2018-05-12T20:47:53.601Z,19.91
2018-05-12T20:50:21.486Z,19.87
2018-05-12T20:52:49.079Z,19.85
2018-05-12T20:55:16.689Z,19.85
2018-05-12T20:57:44.307Z,19.84
2018-05-12T21:00:11.913Z,19.84
2018-05-12T21:02:39.540Z,19.79
2018-05-12T21:05:07.171Z,19.83
2018-05-12T21:07:35.082Z,19.76
2018-05-12T21:10:02.688Z,19.76
2018-05-12T21:12:30.319Z,19.69
2018-05-12T21:14:57.935Z,19.68
2018-05-12T21:17:25.949Z,19.69
2018-05-12T21:19:53.581Z,19.60
2018-05-12T21:22:21.229Z,19.66
2018-05-12T21:24:49.004Z,19.65
2018-05-12T21:27:16.621Z,19.61
2018-05-12T21:29:44.432Z,19.57
2018-05-12T21:32:12.694Z,19.58
2018-05-12T21:34:40.537Z,19.66
2018-05-12T21:37:08.376Z,19.64
2018-05-12T21:39:36.211Z,19.62
2018-05-12T21:42:04.237Z,19.55
2018-05-12T21:44:31.905Z,19.53
2018-05-12T21:46:59.692Z,19.48
2018-05-12T21:49:27.330Z,19.50
2018-05-12T21:51:54.999Z,19.50
2018-05-12T21:54:22.629Z,19.49
2018-05-12T21:56:50.229Z,19.43
2018-05-12T21:59:17.910Z,19.44
2018-05-12T22:01:45.506Z,19.46
2018-05-12T22:04:13.118Z,19.39
2018-05-12T22:06:40.744Z,19.34
2018-05-12T22:09:08.349Z,19.34
2018-05-12T22:11:35.995Z,19.31
2018-05-12T22:14:03.603Z,19.25
2018-05-12T22:16:31.434Z,19.29
2018-05-12T22:18:59.029Z,19.29
2018-05-12T22:21:26.631Z,19.25
2018-05-12T22:23:54.266Z,19.21
2018-05-12T22:26:21.886Z,19.19
2018-05-12T22:28:49.512Z,19.16
2018-05-12T22:31:17.317Z,19.10
2018-05-12T22:33:45.157Z,19.10
2018-05-12T22:36:12.965Z,19.06
2018-05-12T22:38:40.844Z,19.07
2018-05-12T22:41:09.116Z,19.09
2018-05-12T22:43:36.732Z,19.04
2018-05-12T22:46:04.392Z,19.05
2018-05-12T22:48:32.114Z,19.02
2018-05-12T22:51:00.233Z,18.98
2018-05-12T22:53:27.838Z,18.94
2018-05-12T22:55:55.456Z,18.91
2018-05-12T22:58:23.084Z,18.91
2018-05-12T23:00:50.699Z,18.90
2018-05-12T23:03:18.335Z,18.83
2018-05-12T23:05:45.943Z,18.83
2018-05-12T23:08:14.053Z,18.81
2018-05-12T23:10:41.683Z,18.83
2018-05-12T23:13:09.307Z,18.82
2018-05-12T23:15:37.038Z,18.82
2018-05-12T23:18:04.686Z,18.83
2018-05-12T23:20:32.374Z,18.82
2018-05-12T23:23:00.041Z,18.80
2018-05-12T23:25:28.021Z,18.79
2018-05-12T23:27:56.197Z,18.76
2018-05-12T23:30:23.835Z,18.72
2018-05-12T23:32:51.506Z,18.70
2018-05-12T23:35:19.158Z,18.65
2018-05-12T23:37:46.976Z,18.56
2018-05-12T23:40:14.672Z,18.62
2018-05-12T23:42:42.509Z,18.60
2018-05-12T23:45:10.134Z,18.61
2018-05-12T23:47:37.868Z,18.54
2018-05-12T23:50:05.513Z,18.53
2018-05-12T23:52:33.143Z,18.48
2018-05-12T23:55:00.767Z,18.47
2018-05-12T23:57:28.377Z,18.46
2018-05-12T23:59:56.105Z,18.47
